sensor_id;sensor_type;location;lat;lon;timestamp;pressure;altitude;pressure_sealevel;temperature;humidity
78615;BME280;67937;52.488;20.952;2023-10-13T00:02:01;100677.44;;;6.36;79.89
78615;BME280;67937;52.488;20.952;2023-10-13T00:04:29;100673.42;;;6.39;79.96
78615;BME280;67937;52.488;20.952;2023-10-13T00:06:57;100676.86;;;6.43;79.99
78615;BME280;67937;52.488;20.952;2023-10-13T00:09:24;100679.30;;;6.47;79.68
78615;BME280;67937;52.488;20.952;2023-10-13T00:11:52;100675.82;;;6.43;79.95
78615;BME280;67937;52.488;20.952;2023-10-13T00:14:19;100670.21;;;6.40;80.03
78615;BME280;67937;52.488;20.952;2023-10-13T00:16:48;100674.38;;;6.44;80.10
78615;BME280;67937;52.488;20.952;2023-10-13T00:19:34;100677.21;;;6.43;80.25
78615;BME280;67937;52.488;20.952;2023-10-13T00:22:08;100681.84;;;6.48;80.41
78615;BME280;67937;52.488;20.952;2023-10-13T00:24:40;100687.98;;;6.54;80.24
78615;BME280;67937;52.488;20.952;2023-10-13T00:27:18;100696.14;;;6.56;80.39
78615;BME280;67937;52.488;20.952;2023-10-13T00:30:06;100696.37;;;6.55;80.29
78615;BME280;67937;52.488;20.952;2023-10-13T00:32:45;100699.20;;;6.57;80.60
78615;BME280;67937;52.488;20.952;2023-10-13T00:35:13;100700.55;;;6.61;80.43
78615;BME280;67937;52.488;20.952;2023-10-13T00:37:51;100699.50;;;6.64;80.26
78615;BME280;67937;52.488;20.952;2023-10-13T00:40:23;100700.39;;;6.64;80.54
78615;BME280;67937;52.488;20.952;2023-10-13T00:43:05;100702.27;;;6.68;80.50
78615;BME280;67937;52.488;20.952;2023-10-13T00:46:01;100700.73;;;6.67;80.49
78615;BME280;67937;52.488;20.952;2023-10-13T00:48:36;100704.55;;;6.68;80.52
78615;BME280;67937;52.488;20.952;2023-10-13T00:51:11;100708.83;;;6.66;80.75
78615;BME280;67937;52.488;20.952;2023-10-13T00:53:55;100706.36;;;6.70;80.94
78615;BME280;67937;52.488;20.952;2023-10-13T00:56:23;100703.72;;;6.76;80.88
78615;BME280;67937;52.488;20.952;2023-10-13T00:58:56;100702.23;;;6.81;81.02
78615;BME280;67937;52.488;20.952;2023-10-13T01:01:31;100700.41;;;6.85;81.04
78615;BME280;67937;52.488;20.952;2023-10-13T07:28:40;100811.02;;;8.44;87.23
78615;BME280;67937;52.488;20.952;2023-10-13T07:31:15;100801.41;;;8.46;87.31
78615;BME280;67937;52.488;20.952;2023-10-13T07:33:45;100802.67;;;8.53;87.50
78615;BME280;67937;52.488;20.952;2023-10-13T07:36:12;100799.41;;;8.61;87.93
78615;BME280;67937;52.488;20.952;2023-10-13T07:38:45;100797.81;;;8.61;88.02
78615;BME280;67937;52.488;20.952;2023-10-13T07:41:28;100797.95;;;8.70;88.01
78615;BME280;67937;52.488;20.952;2023-10-13T07:43:56;100800.57;;;8.78;87.85
78615;BME280;67937;52.488;20.952;2023-10-13T07:46:25;100793.05;;;8.80;88.06
78615;BME280;67937;52.488;20.952;2023-10-13T07:48:57;100790.99;;;8.95;87.95
78615;BME280;67937;52.488;20.952;2023-10-13T07:51:35;100789.74;;;9.09;88.08
78615;BME280;67937;52.488;20.952;2023-10-13T07:54:13;100786.92;;;9.09;88.26
78615;BME280;67937;52.488;20.952;2023-10-13T07:56:48;100786.98;;;9.08;88.24
78615;BME280;67937;52.488;20.952;2023-10-13T07:59:14;100783.30;;;9.15;88.26
78615;BME280;67937;52.488;20.952;2023-10-13T08:01:41;100775.52;;;9.29;87.86
78615;BME280;67937;52.488;20.952;2023-10-13T08:04:09;100768.36;;;9.39;87.77
78615;BME280;67937;52.488;20.952;2023-10-13T08:06:38;100768.99;;;9.53;87.47
78615;BME280;67937;52.488;20.952;2023-10-13T08:09:07;100771.34;;;9.64;87.45
78615;BME280;67937;52.488;20.952;2023-10-13T08:11:35;100774.23;;;9.78;87.48
78615;BME280;67937;52.488;20.952;2023-10-13T08:14:04;100767.77;;;9.85;87.77
78615;BME280;67937;52.488;20.952;2023-10-13T08:16:40;100761.35;;;9.89;87.75
78615;BME280;67937;52.488;20.952;2023-10-13T08:19:20;100753.46;;;9.91;87.85
78615;BME280;67937;52.488;20.952;2023-10-13T08:21:57;100754.02;;;10.03;87.66
78615;BME280;67937;52.488;20.952;2023-10-13T08:24:26;100753.19;;;10.14;87.47
78615;BME280;67937;52.488;20.952;2023-10-13T08:26:56;100755.92;;;10.26;87.20
78615;BME280;67937;52.488;20.952;2023-10-13T08:29:37;100751.15;;;10.36;87.30
78615;BME280;67937;52.488;20.952;2023-10-13T08:32:40;100749.47;;;10.50;87.21
78615;BME280;67937;52.488;20.952;2023-10-13T08:35:21;100744.16;;;10.59;87.14
78615;BME280;67937;52.488;20.952;2023-10-13T08:38:08;100742.00;;;10.69;87.01
78615;BME280;67937;52.488;20.952;2023-10-13T08:40:44;100737.31;;;10.80;86.66
78615;BME280;67937;52.488;20.952;2023-10-13T08:43:39;100746.60;;;10.95;86.62
78615;BME280;67937;52.488;20.952;2023-10-13T08:46:11;100743.00;;;11.03;86.68
78615;BME280;67937;52.488;20.952;2023-10-13T08:48:56;100750.79;;;11.10;86.72
78615;BME280;67937;52.488;20.952;2023-10-13T08:51:35;100746.95;;;11.19;86.49
78615;BME280;67937;52.488;20.952;2023-10-13T08:54:13;100744.40;;;11.24;86.45
78615;BME280;67937;52.488;20.952;2023-10-13T08:56:47;100740.83;;;11.32;86.68
78615;BME280;67937;52.488;20.952;2023-10-13T08:59:22;100741.92;;;11.38;86.65
78615;BME280;67937;52.488;20.952;2023-10-13T09:01:59;100740.54;;;11.42;86.70
78615;BME280;67937;52.488;20.952;2023-10-13T09:04:27;100744.30;;;11.55;86.51
78615;BME280;67937;52.488;20.952;2023-10-13T09:07:01;100743.39;;;11.60;86.26
78615;BME280;67937;52.488;20.952;2023-10-13T09:12:31;100730.79;;;11.88;86.14
78615;BME280;67937;52.488;20.952;2023-10-13T09:15:09;100729.79;;;12.01;85.54
78615;BME280;67937;52.488;20.952;2023-10-13T09:17:50;100732.58;;;12.15;85.31
78615;BME280;67937;52.488;20.952;2023-10-13T09:20:30;100730.22;;;12.17;85.32
78615;BME280;67937;52.488;20.952;2023-10-13T09:23:13;100731.49;;;12.19;85.33
78615;BME280;67937;52.488;20.952;2023-10-13T09:25:51;100730.54;;;12.22;85.15
78615;BME280;67937;52.488;20.952;2023-10-13T09:28:24;100726.27;;;12.27;84.81
78615;BME280;67937;52.488;20.952;2023-10-13T09:30:55;100720.02;;;12.26;85.04
78615;BME280;67937;52.488;20.952;2023-10-13T09:33:26;100722.45;;;12.35;84.78
78615;BME280;67937;52.488;20.952;2023-10-13T09:35:59;100726.84;;;12.33;84.93
78615;BME280;67937;52.488;20.952;2023-10-13T09:38:27;100724.59;;;12.39;84.97
78615;BME280;67937;52.488;20.952;2023-10-13T09:40:55;100718.55;;;12.46;84.47
78615;BME280;67937;52.488;20.952;2023-10-13T09:43:24;100712.60;;;12.51;84.17
78615;BME280;67937;52.488;20.952;2023-10-13T09:46:00;100713.90;;;12.55;84.22
78615;BME280;67937;52.488;20.952;2023-10-13T09:48:32;100709.61;;;12.62;83.60
78615;BME280;67937;52.488;20.952;2023-10-13T09:51:02;100702.31;;;12.62;83.27
78615;BME280;67937;52.488;20.952;2023-10-13T09:53:31;100699.77;;;12.65;83.55
78615;BME280;67937;52.488;20.952;2023-10-13T09:56:22;100694.77;;;12.66;83.46
78615;BME280;67937;52.488;20.952;2023-10-13T09:59:00;100694.18;;;12.68;83.44
78615;BME280;67937;52.488;20.952;2023-10-13T10:01:38;100686.99;;;12.74;83.23
78615;BME280;67937;52.488;20.952;2023-10-13T10:04:20;100683.81;;;12.82;82.96
78615;BME280;67937;52.488;20.952;2023-10-13T10:07:02;100681.27;;;12.90;82.37
78615;BME280;67937;52.488;20.952;2023-10-13T10:09:33;100685.85;;;12.90;82.82
78615;BME280;67937;52.488;20.952;2023-10-13T10:12:38;100677.67;;;12.95;82.85
78615;BME280;67937;52.488;20.952;2023-10-13T10:17:54;100671.89;;;13.03;82.64
78615;BME280;67937;52.488;20.952;2023-10-13T10:20:36;100668.17;;;13.00;82.86
78615;BME280;67937;52.488;20.952;2023-10-13T10:23:29;100672.08;;;13.05;82.79
78615;BME280;67937;52.488;20.952;2023-10-13T10:26:15;100668.23;;;13.10;82.76
78615;BME280;67937;52.488;20.952;2023-10-13T10:28:46;100666.40;;;13.19;82.70
78615;BME280;67937;52.488;20.952;2023-10-13T10:31:13;100659.28;;;13.30;82.48
78615;BME280;67937;52.488;20.952;2023-10-13T10:33:43;100652.73;;;13.38;82.34
78615;BME280;67937;52.488;20.952;2023-10-13T10:36:10;100647.83;;;13.47;82.18
78615;BME280;67937;52.488;20.952;2023-10-13T10:38:56;100639.39;;;13.57;82.03
78615;BME280;67937;52.488;20.952;2023-10-13T10:41:27;100634.22;;;13.71;81.80
78615;BME280;67937;52.488;20.952;2023-10-13T10:44:12;100633.99;;;13.77;81.29
78615;BME280;67937;52.488;20.952;2023-10-13T10:46:43;100627.49;;;13.81;81.23
78615;BME280;67937;52.488;20.952;2023-10-13T10:49:19;100626.79;;;13.87;81.13
78615;BME280;67937;52.488;20.952;2023-10-13T10:51:58;100617.33;;;13.95;80.79
78615;BME280;67937;52.488;20.952;2023-10-13T10:54:27;100612.52;;;14.01;80.77
78615;BME280;67937;52.488;20.952;2023-10-13T10:56:58;100606.52;;;14.09;80.57
78615;BME280;67937;52.488;20.952;2023-10-13T10:59:38;100602.05;;;14.27;80.33
78615;BME280;67937;52.488;20.952;2023-10-13T11:02:06;100599.33;;;14.40;80.09
78615;BME280;67937;52.488;20.952;2023-10-13T11:04:35;100595.41;;;14.55;79.96
78615;BME280;67937;52.488;20.952;2023-10-13T11:07:06;100595.97;;;14.77;79.69
78615;BME280;67937;52.488;20.952;2023-10-13T11:09:35;100596.38;;;14.94;79.14
78615;BME280;67937;52.488;20.952;2023-10-13T11:12:13;100591.54;;;14.98;79.27
78615;BME280;67937;52.488;20.952;2023-10-13T11:15:06;100589.37;;;15.06;78.91
78615;BME280;67937;52.488;20.952;2023-10-13T11:17:40;100581.54;;;15.21;78.43
78615;BME280;67937;52.488;20.952;2023-10-13T11:20:11;100575.30;;;15.38;77.21
78615;BME280;67937;52.488;20.952;2023-10-13T11:22:49;100571.54;;;15.50;77.07
78615;BME280;67937;52.488;20.952;2023-10-13T11:25:24;100568.58;;;15.60;76.97
78615;BME280;67937;52.488;20.952;2023-10-13T11:27:57;100564.13;;;15.75;77.07
78615;BME280;67937;52.488;20.952;2023-10-13T11:30:27;100568.73;;;15.97;76.86
78615;BME280;67937;52.488;20.952;2023-10-13T11:33:11;100560.47;;;16.10;76.52
78615;BME280;67937;52.488;20.952;2023-10-13T11:35:39;100554.14;;;16.30;75.73
78615;BME280;67937;52.488;20.952;2023-10-13T11:38:29;100550.14;;;16.52;75.37
78615;BME280;67937;52.488;20.952;2023-10-13T11:41:09;100540.64;;;16.65;75.05
78615;BME280;67937;52.488;20.952;2023-10-13T11:43:45;100529.65;;;16.70;75.17
78615;BME280;67937;52.488;20.952;2023-10-13T11:46:27;100526.88;;;16.78;75.05
78615;BME280;67937;52.488;20.952;2023-10-13T11:49:10;100526.39;;;16.76;74.35
78615;BME280;67937;52.488;20.952;2023-10-13T11:51:47;100527.96;;;16.60;75.04
78615;BME280;67937;52.488;20.952;2023-10-13T11:54:19;100531.01;;;16.51;75.11
78615;BME280;67937;52.488;20.952;2023-10-13T11:56:48;100533.67;;;16.51;75.38
78615;BME280;67937;52.488;20.952;2023-10-13T11:59:15;100528.81;;;16.64;75.54
78615;BME280;67937;52.488;20.952;2023-10-13T12:01:46;100526.77;;;16.77;75.28
78615;BME280;67937;52.488;20.952;2023-10-13T12:04:28;100525.38;;;16.79;75.41
78615;BME280;67937;52.488;20.952;2023-10-13T12:07:00;100522.28;;;16.91;74.78
78615;BME280;67937;52.488;20.952;2023-10-13T12:09:44;100516.55;;;16.88;74.51
78615;BME280;67937;52.488;20.952;2023-10-13T12:12:32;100516.23;;;16.84;74.66
78615;BME280;67937;52.488;20.952;2023-10-13T12:15:06;100515.88;;;16.81;74.91
78615;BME280;67937;52.488;20.952;2023-10-13T12:17:39;100517.65;;;16.77;75.26
78615;BME280;67937;52.488;20.952;2023-10-13T12:20:10;100515.45;;;16.73;75.60
78615;BME280;67937;52.488;20.952;2023-10-13T12:22:44;100508.75;;;16.67;75.62
78615;BME280;67937;52.488;20.952;2023-10-13T12:25:21;100503.67;;;16.75;75.71
78615;BME280;67937;52.488;20.952;2023-10-13T12:27:54;100494.05;;;16.81;75.73
78615;BME280;67937;52.488;20.952;2023-10-13T12:30:26;100486.12;;;16.93;75.43
78615;BME280;67937;52.488;20.952;2023-10-13T12:33:02;100477.88;;;16.95;75.66
78615;BME280;67937;52.488;20.952;2023-10-13T12:35:35;100469.40;;;16.99;75.77
78615;BME280;67937;52.488;20.952;2023-10-13T12:38:11;100463.56;;;17.07;75.46
78615;BME280;67937;52.488;20.952;2023-10-13T12:41:06;100461.09;;;17.12;75.46
78615;BME280;67937;52.488;20.952;2023-10-13T12:43:47;100459.81;;;17.26;75.27
78615;BME280;67937;52.488;20.952;2023-10-13T12:46:30;100454.94;;;17.25;75.14
78615;BME280;67937;52.488;20.952;2023-10-13T12:49:11;100452.64;;;17.29;75.30
78615;BME280;67937;52.488;20.952;2023-10-13T12:51:54;100449.92;;;17.35;75.03
78615;BME280;67937;52.488;20.952;2023-10-13T12:54:21;100447.31;;;17.44;74.82
78615;BME280;67937;52.488;20.952;2023-10-13T12:56:50;100447.38;;;17.42;74.88
78615;BME280;67937;52.488;20.952;2023-10-13T12:59:23;100442.91;;;17.37;75.08
78615;BME280;67937;52.488;20.952;2023-10-13T13:01:53;100440.77;;;17.35;74.80
78615;BME280;67937;52.488;20.952;2023-10-13T13:04:20;100437.71;;;17.32;74.94
78615;BME280;67937;52.488;20.952;2023-10-13T13:06:48;100430.61;;;17.37;74.64
78615;BME280;67937;52.488;20.952;2023-10-13T13:09:15;100432.32;;;17.38;74.66
78615;BME280;67937;52.488;20.952;2023-10-13T13:11:55;100438.11;;;17.33;75.03
78615;BME280;67937;52.488;20.952;2023-10-13T13:14:23;100439.77;;;17.35;75.13
78615;BME280;67937;52.488;20.952;2023-10-13T13:16:58;100433.21;;;17.36;74.82
78615;BME280;67937;52.488;20.952;2023-10-13T13:19:34;100433.39;;;17.39;74.75
78615;BME280;67937;52.488;20.952;2023-10-13T13:22:02;100434.22;;;17.38;74.92
78615;BME280;67937;52.488;20.952;2023-10-13T13:24:29;100433.77;;;17.41;74.65
78615;BME280;67937;52.488;20.952;2023-10-13T13:26:57;100434.74;;;17.43;74.80
78615;BME280;67937;52.488;20.952;2023-10-13T13:29:29;100433.14;;;17.47;73.99
78615;BME280;67937;52.488;20.952;2023-10-13T13:31:56;100430.17;;;17.36;74.42
78615;BME280;67937;52.488;20.952;2023-10-13T13:34:23;100423.80;;;17.32;74.43
78615;BME280;67937;52.488;20.952;2023-10-13T13:36:49;100416.95;;;17.23;75.15
78615;BME280;67937;52.488;20.952;2023-10-13T13:39:19;100409.73;;;17.25;75.12
78615;BME280;67937;52.488;20.952;2023-10-13T13:41:55;100409.75;;;17.15;75.34
78615;BME280;67937;52.488;20.952;2023-10-13T13:44:24;100408.20;;;17.11;76.09
78615;BME280;67937;52.488;20.952;2023-10-13T13:46:56;100408.15;;;17.17;75.81
78615;BME280;67937;52.488;20.952;2023-10-13T13:49:23;100401.99;;;17.13;75.94
78615;BME280;67937;52.488;20.952;2023-10-13T13:51:56;100397.80;;;17.03;76.40
78615;BME280;67937;52.488;20.952;2023-10-13T13:54:23;100393.15;;;17.00;76.53
78615;BME280;67937;52.488;20.952;2023-10-13T13:56:53;100390.48;;;16.95;76.88
78615;BME280;67937;52.488;20.952;2023-10-13T13:59:20;100390.73;;;16.91;76.86
78615;BME280;67937;52.488;20.952;2023-10-13T14:01:46;100377.42;;;16.84;77.13
78615;BME280;67937;52.488;20.952;2023-10-13T14:04:13;100373.96;;;16.81;77.12
78615;BME280;67937;52.488;20.952;2023-10-13T14:06:44;100371.91;;;16.77;77.29
78615;BME280;67937;52.488;20.952;2023-10-13T14:09:11;100370.29;;;16.74;77.37
78615;BME280;67937;52.488;20.952;2023-10-13T14:11:42;100364.83;;;16.70;77.81
78615;BME280;67937;52.488;20.952;2023-10-13T14:14:23;100366.18;;;16.69;77.75
78615;BME280;67937;52.488;20.952;2023-10-13T14:16:55;100366.34;;;16.66;77.71
78615;BME280;67937;52.488;20.952;2023-10-13T14:19:29;100358.33;;;16.68;77.94
78615;BME280;67937;52.488;20.952;2023-10-13T14:21:56;100363.99;;;16.66;77.82
78615;BME280;67937;52.488;20.952;2023-10-13T14:24:25;100360.66;;;16.60;78.30
78615;BME280;67937;52.488;20.952;2023-10-13T14:26:57;100362.92;;;16.65;78.04
78615;BME280;67937;52.488;20.952;2023-10-13T14:29:26;100355.45;;;16.59;78.41
78615;BME280;67937;52.488;20.952;2023-10-13T14:31:52;100355.02;;;16.55;78.53
78615;BME280;67937;52.488;20.952;2023-10-13T14:34:19;100354.73;;;16.52;78.47
78615;BME280;67937;52.488;20.952;2023-10-13T14:36:47;100354.84;;;16.48;78.69
78615;BME280;67937;52.488;20.952;2023-10-13T14:39:14;100349.55;;;16.44;78.79
78615;BME280;67937;52.488;20.952;2023-10-13T14:41:41;100342.49;;;16.40;78.81
78615;BME280;67937;52.488;20.952;2023-10-13T14:44:07;100336.74;;;16.37;78.91
78615;BME280;67937;52.488;20.952;2023-10-13T14:46:38;100337.36;;;16.34;78.85
78615;BME280;67937;52.488;20.952;2023-10-13T14:49:06;100346.12;;;16.32;79.23
78615;BME280;67937;52.488;20.952;2023-10-13T14:51:32;100361.73;;;16.40;79.50
78615;BME280;67937;52.488;20.952;2023-10-13T14:53:59;100358.71;;;16.33;79.42
78615;BME280;67937;52.488;20.952;2023-10-13T14:56:27;100345.10;;;16.30;79.72
78615;BME280;67937;52.488;20.952;2023-10-13T14:58:54;100342.20;;;16.32;79.85
78615;BME280;67937;52.488;20.952;2023-10-13T15:01:22;100335.94;;;16.26;80.23
78615;BME280;67937;52.488;20.952;2023-10-13T15:03:54;100333.36;;;16.25;80.27
78615;BME280;67937;52.488;20.952;2023-10-13T15:06:22;100336.23;;;16.21;80.65
78615;BME280;67937;52.488;20.952;2023-10-13T15:08:52;100332.92;;;16.15;80.78
78615;BME280;67937;52.488;20.952;2023-10-13T15:11:23;100325.70;;;16.15;80.86
78615;BME280;67937;52.488;20.952;2023-10-13T15:13:54;100318.28;;;16.12;80.64
78615;BME280;67937;52.488;20.952;2023-10-13T15:16:25;100311.98;;;16.10;81.00
78615;BME280;67937;52.488;20.952;2023-10-13T15:18:52;100303.17;;;16.09;80.85
78615;BME280;67937;52.488;20.952;2023-10-13T15:21:23;100289.66;;;16.04;81.08
78615;BME280;67937;52.488;20.952;2023-10-13T15:23:53;100278.04;;;15.99;81.45
78615;BME280;67937;52.488;20.952;2023-10-13T15:26:21;100275.85;;;15.94;81.39
78615;BME280;67937;52.488;20.952;2023-10-13T15:28:49;100273.28;;;15.95;81.40
78615;BME280;67937;52.488;20.952;2023-10-13T15:31:19;100269.31;;;15.96;81.63
78615;BME280;67937;52.488;20.952;2023-10-13T15:34:05;100267.08;;;15.95;81.71
78615;BME280;67937;52.488;20.952;2023-10-13T15:36:43;100264.31;;;15.92;81.63
78615;BME280;67937;52.488;20.952;2023-10-13T15:39:12;100261.10;;;15.87;82.22
78615;BME280;67937;52.488;20.952;2023-10-13T15:41:42;100254.81;;;15.84;82.13
78615;BME280;67937;52.488;20.952;2023-10-13T15:44:11;100252.94;;;15.82;82.12
78615;BME280;67937;52.488;20.952;2023-10-13T15:46:39;100259.63;;;15.81;82.37
78615;BME280;67937;52.488;20.952;2023-10-13T15:49:06;100254.67;;;15.79;82.59
78615;BME280;67937;52.488;20.952;2023-10-13T15:51:33;100248.19;;;15.76;82.78
78615;BME280;67937;52.488;20.952;2023-10-13T15:54:00;100247.02;;;15.72;82.91
78615;BME280;67937;52.488;20.952;2023-10-13T15:56:27;100244.09;;;15.68;83.01
78615;BME280;67937;52.488;20.952;2023-10-13T15:59:00;100239.86;;;15.66;83.07
78615;BME280;67937;52.488;20.952;2023-10-13T16:01:28;100236.52;;;15.62;83.35
78615;BME280;67937;52.488;20.952;2023-10-13T16:03:55;100229.59;;;15.60;83.53
78615;BME280;67937;52.488;20.952;2023-10-13T16:06:22;100223.26;;;15.56;83.46
78615;BME280;67937;52.488;20.952;2023-10-13T16:08:52;100227.96;;;15.53;83.53
78615;BME280;67937;52.488;20.952;2023-10-13T16:11:19;100219.66;;;15.53;83.70
78615;BME280;67937;52.488;20.952;2023-10-13T16:13:47;100214.72;;;15.53;83.89
78615;BME280;67937;52.488;20.952;2023-10-13T16:16:21;100221.17;;;15.50;84.14
78615;BME280;67937;52.488;20.952;2023-10-13T16:18:52;100223.26;;;15.52;84.05
78615;BME280;67937;52.488;20.952;2023-10-13T16:21:19;100223.70;;;15.55;84.18
78615;BME280;67937;52.488;20.952;2023-10-13T16:23:47;100219.71;;;15.54;84.44
78615;BME280;67937;52.488;20.952;2023-10-13T16:26:14;100216.55;;;15.54;84.59
78615;BME280;67937;52.488;20.952;2023-10-13T16:28:41;100217.83;;;15.53;84.69
78615;BME280;67937;52.488;20.952;2023-10-13T16:31:08;100217.71;;;15.56;84.92
78615;BME280;67937;52.488;20.952;2023-10-13T16:33:41;100206.95;;;15.66;85.16
78615;BME280;67937;52.488;20.952;2023-10-13T16:36:07;100201.87;;;15.65;85.39
78615;BME280;67937;52.488;20.952;2023-10-13T16:38:35;100191.40;;;15.63;85.36
78615;BME280;67937;52.488;20.952;2023-10-13T16:41:06;100185.02;;;15.64;85.68
78615;BME280;67937;52.488;20.952;2023-10-13T16:43:35;100177.46;;;15.65;85.72
78615;BME280;67937;52.488;20.952;2023-10-13T16:46:02;100168.11;;;15.63;85.72
78615;BME280;67937;52.488;20.952;2023-10-13T16:48:29;100158.91;;;15.57;85.94
78615;BME280;67937;52.488;20.952;2023-10-13T16:50:58;100155.33;;;15.56;85.90
78615;BME280;67937;52.488;20.952;2023-10-13T16:53:26;100147.80;;;15.68;86.22
78615;BME280;67937;52.488;20.952;2023-10-13T16:55:53;100146.38;;;15.70;86.10
78615;BME280;67937;52.488;20.952;2023-10-13T16:58:20;100144.31;;;15.74;86.09
78615;BME280;67937;52.488;20.952;2023-10-13T17:00:48;100139.09;;;15.79;86.22
78615;BME280;67937;52.488;20.952;2023-10-13T17:03:18;100132.39;;;15.78;86.00
78615;BME280;67937;52.488;20.952;2023-10-13T17:05:56;100134.12;;;15.80;86.00
78615;BME280;67937;52.488;20.952;2023-10-13T17:08:23;100130.75;;;15.80;86.11
78615;BME280;67937;52.488;20.952;2023-10-13T17:10:50;100129.32;;;15.78;86.15
78615;BME280;67937;52.488;20.952;2023-10-13T17:13:16;100126.58;;;15.84;86.05
78615;BME280;67937;52.488;20.952;2023-10-13T17:15:43;100129.74;;;15.83;85.88
78615;BME280;67937;52.488;20.952;2023-10-13T17:18:09;100126.88;;;15.83;85.95
78615;BME280;67937;52.488;20.952;2023-10-13T17:20:38;100123.95;;;15.82;85.83
78615;BME280;67937;52.488;20.952;2023-10-13T17:23:06;100127.19;;;15.88;85.72
78615;BME280;67937;52.488;20.952;2023-10-13T17:25:36;100125.61;;;15.98;85.55
78615;BME280;67937;52.488;20.952;2023-10-13T17:28:03;100118.79;;;16.04;85.31
78615;BME280;67937;52.488;20.952;2023-10-13T17:30:40;100114.80;;;16.07;85.33
78615;BME280;67937;52.488;20.952;2023-10-13T17:33:07;100110.34;;;16.08;85.07
78615;BME280;67937;52.488;20.952;2023-10-13T17:35:40;100107.34;;;16.09;84.97
78615;BME280;67937;52.488;20.952;2023-10-13T17:38:08;100099.84;;;16.09;84.87
78615;BME280;67937;52.488;20.952;2023-10-13T17:40:36;100096.98;;;16.09;84.97
78615;BME280;67937;52.488;20.952;2023-10-13T17:43:04;100101.73;;;16.18;84.55
78615;BME280;67937;52.488;20.952;2023-10-13T17:45:32;100100.94;;;16.29;84.15
78615;BME280;67937;52.488;20.952;2023-10-13T17:48:01;100091.54;;;16.35;83.54
78615;BME280;67937;52.488;20.952;2023-10-13T17:50:27;100087.19;;;16.37;83.46
78615;BME280;67937;52.488;20.952;2023-10-13T17:52:54;100088.69;;;16.35;83.45
78615;BME280;67937;52.488;20.952;2023-10-13T17:55:21;100090.06;;;16.36;83.57
78615;BME280;67937;52.488;20.952;2023-10-13T17:57:47;100092.11;;;16.40;83.15
78615;BME280;67937;52.488;20.952;2023-10-13T18:00:14;100092.29;;;16.43;83.11
78615;BME280;67937;52.488;20.952;2023-10-13T18:02:42;100093.92;;;16.48;82.89
78615;BME280;67937;52.488;20.952;2023-10-13T18:05:10;100090.63;;;16.44;83.00
78615;BME280;67937;52.488;20.952;2023-10-13T18:07:40;100088.35;;;16.47;83.03
78615;BME280;67937;52.488;20.952;2023-10-13T18:10:08;100093.11;;;16.46;82.90
78615;BME280;67937;52.488;20.952;2023-10-13T18:12:39;100093.40;;;16.46;82.99
78615;BME280;67937;52.488;20.952;2023-10-13T18:15:08;100094.88;;;16.54;82.47
78615;BME280;67937;52.488;20.952;2023-10-13T18:17:36;100096.64;;;16.54;82.62
78615;BME280;67937;52.488;20.952;2023-10-13T18:20:06;100093.49;;;16.50;82.67
78615;BME280;67937;52.488;20.952;2023-10-13T18:22:36;100096.73;;;16.50;82.65
78615;BME280;67937;52.488;20.952;2023-10-13T18:25:04;100086.59;;;16.55;82.63
78615;BME280;67937;52.488;20.952;2023-10-13T18:27:40;100097.48;;;16.64;82.13
78615;BME280;67937;52.488;20.952;2023-10-13T18:30:09;100090.61;;;16.67;81.84
78615;BME280;67937;52.488;20.952;2023-10-13T18:32:42;100088.77;;;16.63;82.10
78615;BME280;67937;52.488;20.952;2023-10-13T18:35:12;100076.60;;;16.66;81.98
78615;BME280;67937;52.488;20.952;2023-10-13T18:37:38;100081.03;;;16.70;81.57
78615;BME280;67937;52.488;20.952;2023-10-13T18:40:13;100069.30;;;16.66;81.85
78615;BME280;67937;52.488;20.952;2023-10-13T18:42:42;100065.84;;;16.69;81.82
78615;BME280;67937;52.488;20.952;2023-10-13T18:45:20;100065.44;;;16.68;81.71
78615;BME280;67937;52.488;20.952;2023-10-13T18:47:48;100057.25;;;16.64;81.67
78615;BME280;67937;52.488;20.952;2023-10-13T18:50:19;100052.90;;;16.65;82.05
78615;BME280;67937;52.488;20.952;2023-10-13T18:52:46;100056.41;;;16.69;81.82
78615;BME280;67937;52.488;20.952;2023-10-13T18:55:13;100044.34;;;16.58;81.97
78615;BME280;67937;52.488;20.952;2023-10-13T18:57:40;100053.02;;;16.57;82.18
78615;BME280;67937;52.488;20.952;2023-10-13T19:00:11;100048.92;;;16.60;81.97
78615;BME280;67937;52.488;20.952;2023-10-13T19:02:42;100041.31;;;16.63;81.94
78615;BME280;67937;52.488;20.952;2023-10-13T19:05:08;100048.00;;;16.61;82.10
78615;BME280;67937;52.488;20.952;2023-10-13T19:07:37;100046.20;;;16.71;81.93
78615;BME280;67937;52.488;20.952;2023-10-13T19:10:04;100036.34;;;16.74;81.64
78615;BME280;67937;52.488;20.952;2023-10-13T19:12:44;100034.48;;;16.74;81.61
78615;BME280;67937;52.488;20.952;2023-10-13T19:15:15;100039.84;;;16.69;81.81
78615;BME280;67937;52.488;20.952;2023-10-13T19:17:43;100032.76;;;16.65;81.95
78615;BME280;67937;52.488;20.952;2023-10-13T19:20:10;100036.14;;;16.70;81.84
78615;BME280;67937;52.488;20.952;2023-10-13T19:22:44;100037.41;;;16.70;81.85
78615;BME280;67937;52.488;20.952;2023-10-13T19:25:16;100036.50;;;16.70;81.99
78615;BME280;67937;52.488;20.952;2023-10-13T19:27:44;100037.76;;;16.76;81.66
78615;BME280;67937;52.488;20.952;2023-10-13T19:30:11;100032.80;;;16.74;81.78
78615;BME280;67937;52.488;20.952;2023-10-13T19:32:40;100026.79;;;16.71;81.89
78615;BME280;67937;52.488;20.952;2023-10-13T19:35:07;100021.64;;;16.66;82.13
78615;BME280;67937;52.488;20.952;2023-10-13T19:37:34;100027.16;;;16.64;82.33